Time;durP1;ratioP1;P1;durP2;ratioP2;P2;SDS_P1;SDS_P2;PMS_P1;PMS_P2;Temp;Humidity;BMP_temperature;BMP_pressure;BME280_temperature;BME280_humidity;BME280_pressure;Samples;Min_cycle;Max_cycle;Signal;HPM_P1;HPM_P2
2021/12/08 00:01:51;;;;;;;;;;;;;;;6.33;71.44;97846.56;5052014;28;19921;-61
2021/12/08 00:04:17;;;;;;;;;;;;;;;6.32;71.28;97847.47;5052371;28;20273;-60
2021/12/08 00:06:44;;;;;;;;;;;;;;;6.31;71.29;97840.59;5052228;28;19924;-62
2021/12/08 00:09:26;;;;;;;;;;;;;;;6.29;70.66;97824.19;5051924;28;19921;-62
2021/12/08 00:14:38;;;;;;;;;;;;;;;6.24;70.83;97814.06;5051784;28;19939;-61
2021/12/08 00:17:05;;;;;;;;;;;;;;;6.20;70.75;97823.06;5051673;28;20297;-62
2021/12/08 00:19:32;;;;;;;;;;;;;;;6.17;71.03;97822.44;5051512;28;19920;-60
2021/12/08 00:21:58;;;;;;;;;;;;;;;6.13;70.63;97806.97;5051717;28;19924;-62
2021/12/08 00:24:25;;;;;;;;;;;;;;;6.10;71.00;97798.53;5051523;28;19921;-62
2021/12/08 00:26:54;;;;;;;;;;;;;;;6.06;70.99;97792.66;5051696;28;20289;-60
2021/12/08 00:29:21;;;;;;;;;;;;;;;6.04;71.11;97791.94;5050217;28;20372;-62
2021/12/08 00:31:47;;;;;;;;;;;;;;;5.99;71.18;97778.34;5051678;28;19970;-61
2021/12/08 00:34:14;;;;;;;;;;;;;;;5.95;70.74;97771.69;5051437;28;19925;-60
2021/12/08 00:36:43;;;;;;;;;;;;;;;5.91;70.66;97765.00;5051403;28;19925;-62
2021/12/08 00:39:10;;;;;;;;;;;;;;;5.86;70.75;97760.94;5051670;28;19920;-63
2021/12/08 00:41:37;;;;;;;;;;;;;;;5.82;70.79;97767.31;5051282;28;19939;-62
2021/12/08 00:44:04;;;;;;;;;;;;;;;5.79;70.87;97762.28;5051331;28;19928;-61
2021/12/08 00:46:31;;;;;;;;;;;;;;;5.75;70.83;97768.66;5051316;28;19978;-60
2021/12/08 00:48:57;;;;;;;;;;;;;;;5.71;70.92;97748.94;5051101;28;19971;-61
2021/12/08 00:51:24;;;;;;;;;;;;;;;5.67;71.08;97763.13;5050890;28;19932;-60
2021/12/08 00:53:51;;;;;;;;;;;;;;;5.63;70.97;97751.25;5051321;28;19928;-60
2021/12/08 00:56:18;;;;;;;;;;;;;;;5.59;71.38;97754.09;5051278;28;19925;-60
2021/12/08 00:58:44;;;;;;;;;;;;;;;5.56;71.12;97758.66;5051413;28;19920;-60
2021/12/08 01:01:26;;;;;;;;;;;;;;;5.53;71.23;97756.28;5051062;28;20365;-60
2021/12/08 01:03:53;;;;;;;;;;;;;;;5.48;71.59;97757.44;5050934;28;20040;-63
2021/12/08 01:06:20;;;;;;;;;;;;;;;5.46;71.60;97767.13;5051362;28;19920;-60
2021/12/08 01:08:46;;;;;;;;;;;;;;;5.45;71.86;97759.38;5051175;28;19935;-61
2021/12/08 01:11:14;;;;;;;;;;;;;;;5.44;71.73;97762.94;5050798;28;19942;-60
2021/12/08 01:13:41;;;;;;;;;;;;;;;5.44;71.98;97747.28;5050711;28;20404;-61
2021/12/08 01:16:08;;;;;;;;;;;;;;;5.43;72.01;97754.31;5049631;28;19920;-60
2021/12/08 01:18:35;;;;;;;;;;;;;;;5.44;71.98;97750.75;5050888;28;20277;-61
2021/12/08 01:21:03;;;;;;;;;;;;;;;5.44;72.04;97747.28;5050683;28;20011;-64
2021/12/08 01:23:30;;;;;;;;;;;;;;;5.46;72.16;97750.66;5051107;28;19924;-62
2021/12/08 01:25:58;;;;;;;;;;;;;;;5.46;72.41;97740.22;5049427;28;20376;-62
2021/12/08 01:28:24;;;;;;;;;;;;;;;5.47;72.18;97742.69;5054524;28;20647;-60
2021/12/08 01:30:53;;;;;;;;;;;;;;;5.50;72.18;97740.81;5054661;28;19921;-60
2021/12/08 01:33:20;;;;;;;;;;;;;;;5.49;72.24;97739.97;5055077;28;19996;-60
2021/12/08 01:35:47;;;;;;;;;;;;;;;5.52;72.15;97739.78;5053812;28;19925;-60
2021/12/08 01:38:13;;;;;;;;;;;;;;;5.53;72.18;97740.63;5054949;28;19920;-60
2021/12/08 01:40:40;;;;;;;;;;;;;;;5.53;72.23;97727.56;5054417;28;19925;-63
2021/12/08 01:43:12;;;;;;;;;;;;;;;5.53;72.21;97736.22;5054445;28;19928;-61
2021/12/08 01:45:59;;;;;;;;;;;;;;;5.55;72.37;97730.91;5054567;28;19924;-60
2021/12/08 01:48:36;;;;;;;;;;;;;;;5.53;72.46;97728.38;5054798;28;19952;-61
2021/12/08 01:51:10;;;;;;;;;;;;;;;5.55;72.13;97730.91;5054268;28;19924;-61
2021/12/08 01:53:38;;;;;;;;;;;;;;;5.53;72.19;97736.22;5053439;28;19932;-61
2021/12/08 01:56:05;;;;;;;;;;;;;;;5.52;72.32;97713.69;5054569;28;19929;-62
2021/12/08 01:58:31;;;;;;;;;;;;;;;5.52;72.20;97726.72;5054326;28;20388;-62
2021/12/08 02:01:00;;;;;;;;;;;;;;;5.53;72.37;97724.97;5054319;28;19924;-60
2021/12/08 02:03:27;;;;;;;;;;;;;;;5.53;72.24;97724.97;5054359;28;19951;-63
2021/12/08 02:05:54;;;;;;;;;;;;;;;5.53;72.36;97727.56;5054114;28;19920;-60
2021/12/08 02:08:21;;;;;;;;;;;;;;;5.53;72.43;97725.78;5054250;28;20361;-63
2021/12/08 02:10:48;;;;;;;;;;;;;;;5.53;72.29;97719.75;5054073;28;19974;-60
2021/12/08 02:13:15;;;;;;;;;;;;;;;5.53;72.52;97717.13;5054353;28;19920;-60
2021/12/08 02:15:42;;;;;;;;;;;;;;;5.54;72.56;97722.25;5053995;28;19968;-60
2021/12/08 02:18:11;;;;;;;;;;;;;;;5.55;72.36;97718.69;5054051;28;19921;-59
2021/12/08 02:20:38;;;;;;;;;;;;;;;5.57;72.62;97732.47;5052504;28;19921;-61
2021/12/08 02:23:05;;;;;;;;;;;;;;;5.57;72.63;97713.38;5054066;28;19924;-62
2021/12/08 02:25:32;;;;;;;;;;;;;;;5.58;72.56;97708.03;5054143;28;20292;-60
2021/12/08 02:28:00;;;;;;;;;;;;;;;5.59;72.64;97709.72;5052692;28;19924;-60
2021/12/08 02:30:43;;;;;;;;;;;;;;;5.61;72.86;97717.44;5052566;28;20278;-60
2021/12/08 02:49:25;;;;;;;;;;;;;;;5.71;72.90;97702.78;5053355;28;19935;-60
2021/12/08 02:51:52;;;;;;;;;;;;;;;5.73;72.86;97700.06;5085521;28;19931;-63
2021/12/08 02:54:20;;;;;;;;;;;;;;;5.76;72.87;97693.81;5053458;28;20396;-60
2021/12/08 02:56:46;;;;;;;;;;;;;;;5.78;72.73;97710.19;5053230;28;19924;-61
2021/12/08 02:59:13;;;;;;;;;;;;;;;5.80;72.75;97690.03;5053307;28;19966;-60
2021/12/08 03:01:40;;;;;;;;;;;;;;;5.82;72.77;97696.81;5053188;28;20266;-61
2021/12/08 03:04:07;;;;;;;;;;;;;;;5.83;73.01;97695.88;5051893;28;20347;-60
2021/12/08 03:06:34;;;;;;;;;;;;;;;5.85;72.87;97685.31;5051633;28;19928;-62
2021/12/08 03:09:02;;;;;;;;;;;;;;;5.87;72.86;97686.88;5053033;28;19928;-60
2021/12/08 03:11:29;;;;;;;;;;;;;;;5.91;72.86;97694.50;5052950;28;19925;-60
2021/12/08 03:13:59;;;;;;;;;;;;;;;5.91;72.92;97697.09;5052939;28;20274;-62
2021/12/08 03:16:26;;;;;;;;;;;;;;;5.95;72.88;97701.16;5052934;28;19928;-62
2021/12/08 03:18:52;;;;;;;;;;;;;;;5.96;72.78;97697.59;5052924;28;19920;-61
2021/12/08 03:21:20;;;;;;;;;;;;;;;5.97;73.18;97702.72;5052718;28;19948;-61
2021/12/08 03:26:13;;;;;;;;;;;;;;;6.03;72.85;97705.84;5053151;28;19925;-61
2021/12/08 03:28:48;;;;;;;;;;;;;;;6.05;72.79;97723.09;5053003;28;19921;-60
2021/12/08 03:31:18;;;;;;;;;;;;;;;6.07;72.88;97716.00;5052738;28;19927;-60
2021/12/08 03:33:45;;;;;;;;;;;;;;;6.10;72.99;97710.53;5052536;28;19929;-61
2021/12/08 03:36:12;;;;;;;;;;;;;;;6.13;73.20;97720.78;5052630;28;19920;-61
2021/12/08 03:38:39;;;;;;;;;;;;;;;6.16;73.21;97731.97;5052616;28;19928;-63
2021/12/08 03:41:07;;;;;;;;;;;;;;;6.19;73.17;97731.72;5051196;28;19921;-61
2021/12/08 03:43:34;;;;;;;;;;;;;;;6.22;73.19;97731.50;5051191;28;20003;-61
2021/12/08 03:46:01;;;;;;;;;;;;;;;6.25;73.11;97733.91;5052364;28;20027;-61
2021/12/08 03:48:46;;;;;;;;;;;;;;;6.27;73.10;97725.97;5052206;28;19954;-61
2021/12/08 03:51:12;;;;;;;;;;;;;;;6.30;72.81;97734.41;5051994;28;19921;-61
2021/12/08 03:53:39;;;;;;;;;;;;;;;6.31;72.89;97743.91;5051078;28;19921;-62
2021/12/08 03:56:06;;;;;;;;;;;;;;;6.34;72.93;97738.47;5052333;28;20369;-60
2021/12/08 03:58:32;;;;;;;;;;;;;;;6.35;72.79;97729.69;5052542;28;19924;-61
2021/12/08 04:00:59;;;;;;;;;;;;;;;6.38;72.73;97741.69;5052085;28;19925;-60
2021/12/08 04:03:29;;;;;;;;;;;;;;;6.39;73.02;97736.34;5050979;28;19921;-61
2021/12/08 04:06:01;;;;;;;;;;;;;;;6.41;73.00;97733.63;5051020;28;19931;-61
2021/12/08 04:08:55;;;;;;;;;;;;;;;6.44;73.00;97737.78;5052420;28;19932;-63
2021/12/08 04:11:20;;;;;;;;;;;;;;;6.46;73.08;97730.66;5051530;28;19928;-63
2021/12/08 04:14:07;;;;;;;;;;;;;;;6.48;73.15;97739.25;5051900;28;20055;-60
2021/12/08 04:16:38;;;;;;;;;;;;;;;6.51;73.04;97745.06;5052056;28;19925;-61
2021/12/08 04:19:05;;;;;;;;;;;;;;;6.53;73.00;97737.13;5051864;28;20356;-61
2021/12/08 04:21:32;;;;;;;;;;;;;;;6.56;73.00;97749.13;5051736;28;19924;-61
2021/12/08 04:23:59;;;;;;;;;;;;;;;6.56;72.75;97746.50;5051857;28;20360;-60
2021/12/08 04:26:30;;;;;;;;;;;;;;;6.59;72.94;97746.31;5051869;28;20284;-63
2021/12/08 04:28:56;;;;;;;;;;;;;;;6.60;72.41;97751.41;5051535;28;19920;-61
2021/12/08 04:31:25;;;;;;;;;;;;;;;6.62;72.72;97748.69;5051486;28;19943;-62
2021/12/08 04:33:55;;;;;;;;;;;;;;;6.63;73.04;97740.75;5051700;28;19927;-63
2021/12/08 04:36:23;;;;;;;;;;;;;;;6.67;73.08;97745.72;5051551;28;19935;-60
2021/12/08 04:38:54;;;;;;;;;;;;;;;6.68;72.87;97748.22;5050391;28;19928;-61
2021/12/08 04:41:27;;;;;;;;;;;;;;;6.70;72.60;97748.97;5049902;28;19927;-61
2021/12/08 04:44:04;;;;;;;;;;;;;;;6.72;73.12;97757.53;5050199;28;19924;-63
2021/12/08 05:05:15;;;;;;;;;;;;;;;6.82;71.91;97743.75;5051060;28;19925;-61
2021/12/08 05:10:17;;;;;;;;;;;;;;;6.85;72.50;97739.16;5050965;28;19931;-61
2021/12/08 05:12:46;;;;;;;;;;;;;;;6.87;72.64;97747.72;5050861;28;19921;-61
2021/12/08 05:15:21;;;;;;;;;;;;;;;6.90;72.49;97742.25;5051067;28;19927;-60
2021/12/08 05:17:51;;;;;;;;;;;;;;;6.93;72.80;97740.34;5051013;28;19921;-62
2021/12/08 05:20:29;;;;;;;;;;;;;;;6.96;72.89;97750.59;5050836;28;19925;-62
2021/12/08 05:22:58;;;;;;;;;;;;;;;6.98;72.55;97754.75;5049622;28;20392;-61
2021/12/08 05:25:27;;;;;;;;;;;;;;;7.00;72.80;97752.84;5050956;28;19924;-61
2021/12/08 05:27:55;;;;;;;;;;;;;;;7.02;72.60;97755.34;5049682;28;19924;-62
2021/12/08 05:30:27;;;;;;;;;;;;;;;7.05;72.37;97760.38;5050467;28;19921;-61
2021/12/08 05:32:55;;;;;;;;;;;;;;;7.06;72.22;97758.59;5050721;28;19927;-61
2021/12/08 05:35:23;;;;;;;;;;;;;;;7.08;72.02;97768.00;5050860;28;19925;-61
2021/12/08 05:37:50;;;;;;;;;;;;;;;7.08;71.14;97786.31;5051082;28;20292;-61
2021/12/08 05:40:20;;;;;;;;;;;;;;;7.09;72.03;97782.72;5050472;28;19979;-61
2021/12/08 05:42:47;;;;;;;;;;;;;;;7.11;72.36;97785.25;5050622;28;19975;-61
2021/12/08 05:45:16;;;;;;;;;;;;;;;7.12;72.22;97790.38;5050718;28;19948;-61
2021/12/08 05:47:44;;;;;;;;;;;;;;;7.14;71.76;97785.84;5050560;28;19928;-61
2021/12/08 05:50:12;;;;;;;;;;;;;;;7.15;72.28;97790.13;5049279;28;19943;-60
2021/12/08 05:52:39;;;;;;;;;;;;;;;7.17;72.44;97795.22;5049299;28;19928;-60
2021/12/08 05:55:06;;;;;;;;;;;;;;;7.19;72.61;97787.28;5050633;28;19920;-61
2021/12/08 05:57:35;;;;;;;;;;;;;;;7.20;71.75;97795.00;5050456;28;19920;-61
2021/12/08 06:00:13;;;;;;;;;;;;;;;7.22;71.95;97802.75;5049212;28;20382;-62
2021/12/08 06:02:40;;;;;;;;;;;;;;;7.23;72.32;97799.19;5050552;28;19920;-61
2021/12/08 06:05:07;;;;;;;;;;;;;;;7.23;71.59;97809.66;5049129;28;19925;-62
2021/12/08 06:07:34;;;;;;;;;;;;;;;7.24;71.92;97801.69;5050455;28;19921;-63
2021/12/08 06:10:04;;;;;;;;;;;;;;;7.24;71.20;97806.91;5050188;28;19974;-62
2021/12/08 06:12:31;;;;;;;;;;;;;;;7.26;71.51;97819.91;5050699;28;19935;-60
2021/12/08 06:14:57;;;;;;;;;;;;;;;7.24;69.82;97814.78;5054231;28;19929;-61
2021/12/08 06:17:26;;;;;;;;;;;;;;;7.25;71.37;97819.06;5054255;28;19924;-61
2021/12/08 06:19:53;;;;;;;;;;;;;;;7.24;71.50;97825.25;5053868;28;20262;-62
2021/12/08 06:22:20;;;;;;;;;;;;;;;7.25;71.40;97828.69;5054007;28;19924;-61
2021/12/08 06:24:47;;;;;;;;;;;;;;;7.25;71.76;97823.47;5053866;28;19925;-60
2021/12/08 06:27:14;;;;;;;;;;;;;;;7.24;71.33;97817.38;5052613;28;19924;-60
2021/12/08 06:29:42;;;;;;;;;;;;;;;7.23;71.19;97822.72;5053867;28;20328;-61
2021/12/08 06:32:11;;;;;;;;;;;;;;;7.21;71.33;97819.41;5052643;28;19939;-62
2021/12/08 06:34:40;;;;;;;;;;;;;;;7.20;71.79;97823.78;5054059;28;19925;-61
2021/12/08 06:37:12;;;;;;;;;;;;;;;7.17;71.75;97814.41;5053683;28;19920;-61
2021/12/08 06:39:51;;;;;;;;;;;;;;;7.15;71.52;97818.91;5053696;28;19921;-63
2021/12/08 06:42:19;;;;;;;;;;;;;;;7.15;71.52;97828.53;5052629;28;20414;-60
2021/12/08 06:44:47;;;;;;;;;;;;;;;7.12;71.27;97824.38;5053373;28;19925;-61
2021/12/08 06:47:16;;;;;;;;;;;;;;;7.10;71.51;97820.22;5052387;28;19920;-61
2021/12/08 06:49:47;;;;;;;;;;;;;;;7.08;71.54;97822.94;5053196;28;19920;-64
2021/12/08 06:52:18;;;;;;;;;;;;;;;7.04;71.37;97827.53;5052333;28;19927;-60
2021/12/08 06:54:47;;;;;;;;;;;;;;;7.00;69.79;97840.97;5052299;28;19927;-60
2021/12/08 06:57:19;;;;;;;;;;;;;;;6.97;69.77;97842.03;5053491;28;20331;-61
2021/12/08 07:00:23;;;;;;;;;;;;;;;6.95;70.73;97832.63;5051962;28;19951;-61
2021/12/08 07:08:05;;;;;;;;;;;;;;;6.90;70.79;97844.25;5041568;28;20415;-60
2021/12/08 07:10:35;;;;;;;;;;;;;;;6.89;71.31;97845.19;5052727;28;19920;-61
2021/12/08 07:13:04;;;;;;;;;;;;;;;6.87;71.27;97836.63;5051738;28;20280;-61
2021/12/08 07:15:34;;;;;;;;;;;;;;;6.85;71.04;97838.53;5052994;28;19924;-61
2021/12/08 07:18:03;;;;;;;;;;;;;;;6.85;71.20;97846.38;5052926;28;19943;-60
2021/12/08 07:20:42;;;;;;;;;;;;;;;6.83;71.23;97840.41;5052692;28;19932;-61
2021/12/08 07:23:12;;;;;;;;;;;;;;;6.83;71.34;97853.50;5052835;28;19920;-61
2021/12/08 07:25:39;;;;;;;;;;;;;;;6.83;71.64;97858.72;5052088;28;19921;-60
2021/12/08 07:28:06;;;;;;;;;;;;;;;6.83;71.77;97861.34;5053068;28;20290;-63
2021/12/08 07:30:35;;;;;;;;;;;;;;;6.81;71.46;97865.84;5052483;28;19947;-61
2021/12/08 07:33:02;;;;;;;;;;;;;;;6.80;71.78;97861.56;5052513;28;19921;-62
2021/12/08 07:35:37;;;;;;;;;;;;;;;6.80;71.94;97874.63;5052484;28;19920;-60
2021/12/08 07:38:11;;;;;;;;;;;;;;;6.80;71.43;97874.63;5052715;28;19921;-61
2021/12/08 07:40:43;;;;;;;;;;;;;;;6.79;71.64;97878.19;5052185;28;20653;-63
2021/12/08 07:43:12;;;;;;;;;;;;;;;6.78;71.72;97866.88;5052460;28;19920;-61
2021/12/08 07:45:42;;;;;;;;;;;;;;;6.79;71.99;97872.97;5051152;28;19921;-61
2021/12/08 07:48:11;;;;;;;;;;;;;;;6.78;71.95;97873.91;5052270;28;19924;-62
2021/12/08 07:50:47;;;;;;;;;;;;;;;6.78;72.01;97874.72;5052784;28;20379;-63
2021/12/08 07:53:15;;;;;;;;;;;;;;;6.79;72.06;97896.50;5052458;28;19925;-60
2021/12/08 07:55:45;;;;;;;;;;;;;;;6.81;72.25;97888.53;5052377;28;19931;-61
2021/12/08 07:58:14;;;;;;;;;;;;;;;6.82;72.12;97896.28;5051145;28;19924;-60
2021/12/08 08:00:47;;;;;;;;;;;;;;;6.84;72.25;97904.84;5051989;28;19925;-62
2021/12/08 08:03:14;;;;;;;;;;;;;;;6.85;71.66;97906.53;5052076;28;19978;-60
2021/12/08 08:05:41;;;;;;;;;;;;;;;6.87;72.46;97909.88;5052123;28;19994;-61
2021/12/08 08:08:10;;;;;;;;;;;;;;;6.90;72.50;97914.88;5051977;28;20327;-60
2021/12/08 08:10:46;;;;;;;;;;;;;;;6.95;72.44;97924.19;5050754;28;20003;-60
2021/12/08 08:13:14;;;;;;;;;;;;;;;6.98;72.65;97924.78;5051816;28;19920;-62
2021/12/08 08:15:44;;;;;;;;;;;;;;;7.03;72.83;97919.25;5050655;28;20384;-60
2021/12/08 08:18:14;;;;;;;;;;;;;;;7.09;72.68;97931.88;5050650;28;19931;-60
2021/12/08 08:20:47;;;;;;;;;;;;;;;7.14;72.73;97936.78;5051906;28;20369;-61
2021/12/08 08:23:14;;;;;;;;;;;;;;;7.19;73.02;97939.03;5051777;28;19921;-60
2021/12/08 08:25:42;;;;;;;;;;;;;;;7.24;72.95;97931.69;5051780;28;19924;-62
2021/12/08 08:28:09;;;;;;;;;;;;;;;7.28;73.14;97935.75;5051711;28;19932;-60
2021/12/08 08:30:45;;;;;;;;;;;;;;;7.32;72.85;97939.00;5050311;28;19928;-60
2021/12/08 08:33:13;;;;;;;;;;;;;;;7.35;72.75;97947.44;5051387;28;19927;-62
2021/12/08 08:35:41;;;;;;;;;;;;;;;7.38;72.99;97944.63;5051579;28;19930;-61
2021/12/08 08:38:11;;;;;;;;;;;;;;;7.41;72.91;97948.78;5051604;28;19929;-61
2021/12/08 08:40:44;;;;;;;;;;;;;;;7.45;72.80;97954.63;5050439;28;19927;-60
2021/12/08 08:43:10;;;;;;;;;;;;;;;7.46;72.61;97944.06;5051393;28;19921;-60
2021/12/08 08:45:43;;;;;;;;;;;;;;;7.49;72.87;97946.44;5050215;28;19925;-61
2021/12/08 08:48:12;;;;;;;;;;;;;;;7.52;72.73;97967.16;5050056;28;19920;-61
2021/12/08 08:50:45;;;;;;;;;;;;;;;7.54;72.86;97967.88;5049967;28;19947;-60
2021/12/08 08:53:13;;;;;;;;;;;;;;;7.56;72.78;97965.97;5050078;28;19924;-61
2021/12/08 08:55:43;;;;;;;;;;;;;;;7.60;72.60;97984.09;5049956;28;20552;-62
2021/12/08 08:58:11;;;;;;;;;;;;;;;7.61;72.58;97978.75;5051262;28;19928;-60
2021/12/08 09:00:46;;;;;;;;;;;;;;;7.63;72.57;97976.03;5049554;28;19924;-60
2021/12/08 09:03:17;;;;;;;;;;;;;;;7.65;72.55;97977.56;5050091;28;19927;-61
2021/12/08 09:05:51;;;;;;;;;;;;;;;7.68;72.56;97973.88;5051282;28;19925;-60
2021/12/08 09:08:20;;;;;;;;;;;;;;;7.69;72.79;97972.94;5051094;28;19921;-60
2021/12/08 09:10:53;;;;;;;;;;;;;;;7.72;72.53;97977.09;5050676;28;19974;-60
2021/12/08 09:13:22;;;;;;;;;;;;;;;7.73;72.74;97984.03;5051002;28;20361;-60
2021/12/08 09:15:51;;;;;;;;;;;;;;;7.73;72.24;97976.19;5083197;28;19928;-61
2021/12/08 09:18:23;;;;;;;;;;;;;;;7.75;72.64;97976.88;5049816;28;19927;-60
2021/12/08 09:21:19;;;;;;;;;;;;;;;7.75;72.38;97992.59;5049498;28;19921;-60
2021/12/08 09:23:51;;;;;;;;;;;;;;;7.75;72.14;98000.47;5054456;28;19924;-62
2021/12/08 09:26:19;;;;;;;;;;;;;;;7.74;72.13;98004.03;5049894;28;19921;-60
2021/12/08 09:28:52;;;;;;;;;;;;;;;7.72;72.31;97998.06;5049646;28;19931;-60
2021/12/08 09:31:25;;;;;;;;;;;;;;;7.72;72.07;97990.19;5049509;28;20506;-60
2021/12/08 09:33:55;;;;;;;;;;;;;;;7.71;72.04;98006.88;5050874;28;19963;-60
2021/12/08 09:36:33;;;;;;;;;;;;;;;7.70;72.26;98011.25;5049471;28;20377;-60
2021/12/08 09:39:04;;;;;;;;;;;;;;;7.69;72.18;98001.75;5050869;28;19931;-62
2021/12/08 09:41:36;;;;;;;;;;;;;;;7.67;72.39;97998.41;5050810;28;19928;-61
2021/12/08 09:44:06;;;;;;;;;;;;;;;7.67;72.09;97995.78;5049454;28;20373;-61
2021/12/08 09:46:34;;;;;;;;;;;;;;;7.65;72.52;97998.53;5050513;28;19928;-60
2021/12/08 09:49:02;;;;;;;;;;;;;;;7.65;72.50;98001.13;5053169;28;19925;-61
2021/12/08 09:51:29;;;;;;;;;;;;;;;7.65;72.54;98009.00;5054775;28;19946;-62
2021/12/08 09:53:56;;;;;;;;;;;;;;;7.65;72.36;98001.13;5053755;28;20387;-61
2021/12/08 09:56:23;;;;;;;;;;;;;;;7.66;72.64;97992.34;5054491;28;20395;-63
2021/12/08 09:58:50;;;;;;;;;;;;;;;7.67;72.62;97993.19;5053388;28;20339;-60
2021/12/08 10:01:20;;;;;;;;;;;;;;;7.69;72.72;97993.88;5053076;28;20015;-60
2021/12/08 10:03:48;;;;;;;;;;;;;;;7.71;72.56;97996.41;5054350;28;19925;-60
2021/12/08 10:06:15;;;;;;;;;;;;;;;7.72;72.74;97991.03;5054205;28;19927;-60
2021/12/08 10:08:43;;;;;;;;;;;;;;;7.75;72.98;97992.59;5053034;28;19921;-60
2021/12/08 10:11:09;;;;;;;;;;;;;;;7.77;72.97;97994.16;5054075;28;19979;-61
2021/12/08 10:13:36;;;;;;;;;;;;;;;7.80;72.56;98001.78;5054528;28;20643;-60
2021/12/08 10:16:04;;;;;;;;;;;;;;;7.84;73.01;97999.78;5054047;28;19925;-60
2021/12/08 10:18:31;;;;;;;;;;;;;;;7.87;72.89;97996.94;5054212;28;20377;-60
2021/12/08 10:20:58;;;;;;;;;;;;;;;7.90;72.85;97986.25;5085997;28;19921;-63
2021/12/08 10:23:27;;;;;;;;;;;;;;;7.94;73.21;97981.59;5054124;28;19920;-60
2021/12/08 10:25:58;;;;;;;;;;;;;;;7.97;73.05;97981.38;5053930;28;19921;-59
2021/12/08 10:28:30;;;;;;;;;;;;;;;8.02;73.00;97978.38;5053969;28;19928;-60
2021/12/08 10:31:05;;;;;;;;;;;;;;;8.06;72.85;97979.81;5053679;28;19921;-61
2021/12/08 10:33:37;;;;;;;;;;;;;;;8.10;72.98;97972.59;5052864;28;19924;-63
2021/12/08 10:36:18;;;;;;;;;;;;;;;8.14;72.98;97966.97;5052602;28;19920;-61
2021/12/08 10:38:45;;;;;;;;;;;;;;;8.19;72.85;97967.47;5053624;28;20435;-60
2021/12/08 10:41:12;;;;;;;;;;;;;;;8.24;72.50;97967.13;5053812;28;19928;-61
2021/12/08 10:43:38;;;;;;;;;;;;;;;8.28;72.83;97965.09;5053743;28;19925;-62
2021/12/08 10:46:10;;;;;;;;;;;;;;;8.33;72.98;97962.94;5053668;28;19921;-60
2021/12/08 10:48:42;;;;;;;;;;;;;;;8.38;72.73;97976.56;5053573;28;19924;-62
2021/12/08 10:54:27;;;;;;;;;;;;;;;8.47;72.59;97983.72;5053651;28;19920;-60
2021/12/08 10:56:57;;;;;;;;;;;;;;;8.51;72.76;97986.94;5052252;28;19928;-60
2021/12/08 10:59:25;;;;;;;;;;;;;;;8.56;72.66;97991.84;5052384;28;19928;-61
2021/12/08 11:01:53;;;;;;;;;;;;;;;8.57;72.60;97989.09;5052323;28;19920;-61
2021/12/08 11:04:27;;;;;;;;;;;;;;;8.62;72.56;97980.03;5053290;28;19932;-61
2021/12/08 11:07:02;;;;;;;;;;;;;;;8.65;72.84;97980.66;5052051;28;19928;-61
2021/12/08 11:09:37;;;;;;;;;;;;;;;8.67;72.75;97981.34;5053121;28;19924;-62
2021/12/08 11:12:04;;;;;;;;;;;;;;;8.71;72.67;97992.47;5053172;28;19921;-60
2021/12/08 11:14:41;;;;;;;;;;;;;;;8.73;72.75;97999.25;5053159;28;19925;-60
2021/12/08 11:17:27;;;;;;;;;;;;;;;8.76;72.66;98013.06;5051852;28;19925;-65
2021/12/08 11:20:12;;;;;;;;;;;;;;;8.78;72.52;98022.50;5053076;28;19921;-59
2021/12/08 11:22:39;;;;;;;;;;;;;;;8.79;72.47;98015.47;5052862;28;19928;-60
2021/12/08 11:25:07;;;;;;;;;;;;;;;8.80;72.24;98019.75;5051816;28;19924;-61
2021/12/08 11:27:34;;;;;;;;;;;;;;;8.79;72.22;98016.28;5052856;28;20365;-62
2021/12/08 11:30:14;;;;;;;;;;;;;;;8.80;72.13;98019.75;5052681;28;19927;-59
2021/12/08 11:32:40;;;;;;;;;;;;;;;8.77;71.86;98014.72;5051586;28;20399;-61
2021/12/08 11:35:18;;;;;;;;;;;;;;;8.76;71.66;98013.06;5051477;28;20003;-62
2021/12/08 11:37:55;;;;;;;;;;;;;;;8.73;71.78;98001.03;5052767;28;19921;-59
2021/12/08 11:40:22;;;;;;;;;;;;;;;8.72;71.97;98008.06;5052699;28;19925;-60
2021/12/08 11:42:50;;;;;;;;;;;;;;;8.72;72.07;98013.31;5052612;28;20007;-59
2021/12/08 11:45:18;;;;;;;;;;;;;;;8.75;72.15;98019.28;5052612;28;20011;-61
2021/12/08 11:47:44;;;;;;;;;;;;;;;8.76;72.36;98013.91;5051111;28;19924;-62
2021/12/08 11:50:16;;;;;;;;;;;;;;;8.79;72.28;98005.78;5052060;28;19928;-60
2021/12/08 11:52:42;;;;;;;;;;;;;;;8.82;72.49;98008.19;5050762;28;19924;-60
2021/12/08 11:55:12;;;;;;;;;;;;;;;8.85;72.60;98007.94;5052415;28;20269;-59
2021/12/08 11:57:42;;;;;;;;;;;;;;;8.89;72.55;98005.09;5052149;28;19921;-60
2021/12/08 12:00:28;;;;;;;;;;;;;;;8.92;72.60;98016.16;5050631;28;19925;-60
2021/12/08 12:03:01;;;;;;;;;;;;;;;8.95;72.47;98007.22;5052244;28;19921;-59
2021/12/08 12:05:35;;;;;;;;;;;;;;;8.98;72.69;98017.47;5052149;28;19959;-59
2021/12/08 12:08:07;;;;;;;;;;;;;;;9.01;72.62;98019.03;5052016;28;19929;-62
2021/12/08 12:10:35;;;;;;;;;;;;;;;9.04;72.58;98027.50;5051805;28;20365;-62
2021/12/08 12:13:08;;;;;;;;;;;;;;;9.08;72.69;98028.09;5051963;28;19925;-59
2021/12/08 12:15:37;;;;;;;;;;;;;;;9.10;72.70;98032.28;5051843;28;19920;-60
2021/12/08 12:18:04;;;;;;;;;;;;;;;9.14;72.38;98040.72;5051746;28;19927;-61
2021/12/08 12:20:38;;;;;;;;;;;;;;;9.15;72.23;98042.38;5050555;28;20411;-60
2021/12/08 12:23:24;;;;;;;;;;;;;;;9.16;72.15;98041.44;5051781;28;20007;-60
2021/12/08 12:26:09;;;;;;;;;;;;;;;9.19;72.36;98041.19;5051514;28;20369;-63
2021/12/08 12:28:54;;;;;;;;;;;;;;;9.22;72.37;98045.38;5051878;28;19927;-59
2021/12/08 12:31:33;;;;;;;;;;;;;;;9.27;72.72;98039.75;5051336;28;19933;-60
2021/12/08 12:34:19;;;;;;;;;;;;;;;9.32;73.03;98043.69;5051767;28;19925;-58
2021/12/08 12:36:46;;;;;;;;;;;;;;;9.39;72.61;98050.09;5051396;28;20372;-60
2021/12/08 12:39:19;;;;;;;;;;;;;;;9.44;72.42;98051.53;5049658;28;19927;-59
2021/12/08 12:42:11;;;;;;;;;;;;;;;9.47;72.00;98052.16;5049759;28;19927;-59
2021/12/08 12:44:40;;;;;;;;;;;;;;;9.49;72.10;98042.34;5050093;28;19921;-61
2021/12/08 12:47:11;;;;;;;;;;;;;;;9.51;72.31;98043.06;5050338;28;20337;-62
2021/12/08 12:49:39;;;;;;;;;;;;;;;9.57;72.58;98038.25;5049405;28;19927;-60
2021/12/08 12:52:07;;;;;;;;;;;;;;;9.69;72.77;98029.41;5049403;28;19921;-59
2021/12/08 12:54:34;;;;;;;;;;;;;;;9.89;73.25;98032.16;5051442;28;19979;-59
2021/12/08 12:57:03;;;;;;;;;;;;;;;10.08;73.89;98034.13;5051217;28;20262;-62
2021/12/08 12:59:42;;;;;;;;;;;;;;;10.30;74.12;98032.31;5049874;28;19932;-59
2021/12/08 13:02:23;;;;;;;;;;;;;;;10.54;74.47;98039.13;5051097;28;20577;-59
2021/12/08 13:04:50;;;;;;;;;;;;;;;10.73;73.48;98038.41;5050085;28;19920;-58
2021/12/08 13:07:17;;;;;;;;;;;;;;;10.92;73.86;98024.50;5051090;28;20388;-60
2021/12/08 13:09:46;;;;;;;;;;;;;;;11.10;73.74;98025.69;5050976;28;19924;-59
2021/12/08 13:12:21;;;;;;;;;;;;;;;11.27;72.19;98026.81;5051023;28;19964;-59
2021/12/08 13:15:05;;;;;;;;;;;;;;;11.39;72.30;98024.91;5051006;28;20407;-61
2021/12/08 13:17:32;;;;;;;;;;;;;;;11.46;71.36;98026.03;5051330;28;19920;-60
2021/12/08 13:20:08;;;;;;;;;;;;;;;11.48;68.70;98026.75;5049520;28;20475;-59
2021/12/08 13:22:54;;;;;;;;;;;;;;;11.49;70.25;98031.03;5050711;28;20011;-60
2021/12/08 13:25:26;;;;;;;;;;;;;;;11.45;69.40;98030.44;5049587;28;19921;-59
2021/12/08 13:28:06;;;;;;;;;;;;;;;11.40;69.27;98029.22;5049873;28;19921;-59
2021/12/08 13:30:33;;;;;;;;;;;;;;;11.34;69.12;98041.13;5050874;28;19924;-61
2021/12/08 13:33:08;;;;;;;;;;;;;;;11.26;66.67;98026.00;5049914;28;19928;-59
2021/12/08 13:35:36;;;;;;;;;;;;;;;11.18;66.05;98039.00;5049614;28;19928;-59
2021/12/08 13:38:04;;;;;;;;;;;;;;;11.07;66.57;98043.38;5049461;28;20399;-58
2021/12/08 13:40:44;;;;;;;;;;;;;;;10.96;63.90;98046.13;5050426;28;19925;-59
2021/12/08 13:43:30;;;;;;;;;;;;;;;10.82;66.40;98045.53;5050877;28;19925;-61
2021/12/08 13:45:57;;;;;;;;;;;;;;;10.68;64.43;98045.84;5050608;28;19920;-59
2021/12/08 13:48:24;;;;;;;;;;;;;;;10.55;65.72;98051.34;5050946;28;19921;-60
2021/12/08 13:50:50;;;;;;;;;;;;;;;10.40;64.79;98059.50;5049427;28;19932;-60
2021/12/08 13:53:21;;;;;;;;;;;;;;;10.28;65.56;98050.84;5051000;28;19932;-59
2021/12/08 13:55:49;;;;;;;;;;;;;;;10.17;65.93;98045.69;5050587;28;19921;-58
2021/12/08 13:58:18;;;;;;;;;;;;;;;10.09;66.56;98059.44;5050764;28;19920;-59
2021/12/08 14:00:50;;;;;;;;;;;;;;;10.03;65.80;98057.31;5050334;28;19921;-59
2021/12/08 14:03:18;;;;;;;;;;;;;;;10.01;63.92;98057.44;5049661;28;20023;-60